Time;durP1;ratioP1;P1;durP2;ratioP2;P2;SDS_P1;SDS_P2;PMS_P1;PMS_P2;Temp;Humidity;BMP_temperature;BMP_pressure;BME280_temperature;BME280_humidity;BME280_pressure;Samples;Min_cycle;Max_cycle;Signal;HPM_P1;HPM_P2
2023/07/15 00:01:08;;;;;;;4.95;2.30;;;23.80;67.90;;;;;;4990342;28;20041;-84
2023/07/15 00:03:34;;;;;;;4.00;2.45;;;23.90;67.30;;;;;;4983505;28;20026;-85
2023/07/15 00:06:01;;;;;;;3.58;2.50;;;24.00;66.70;;;;;;4970156;28;20149;-84
2023/07/15 00:08:27;;;;;;;5.47;2.55;;;24.20;66.00;;;;;;4983512;28;20018;-85
2023/07/15 00:10:53;;;;;;;7.60;2.22;;;24.30;65.80;;;;;;4977193;28;20026;-85
2023/07/15 00:13:19;;;;;;;5.72;2.60;;;24.30;65.40;;;;;;4982766;28;20557;-85
2023/07/15 00:15:50;;;;;;;3.53;2.20;;;24.40;64.90;;;;;;4979888;28;20019;-85
2023/07/15 00:18:17;;;;;;;10.90;2.78;;;24.40;65.00;;;;;;4966783;28;20409;-85
2023/07/15 00:20:46;;;;;;;9.98;2.78;;;24.50;65.00;;;;;;4997426;28;20011;-87
2023/07/15 00:23:24;;;;;;;5.82;2.67;;;24.50;64.90;;;;;;4982227;28;20022;-86
2023/07/15 00:25:50;;;;;;;3.65;2.38;;;24.50;64.70;;;;;;4985101;28;20630;-86
2023/07/15 00:28:17;;;;;;;2.67;2.33;;;24.50;64.70;;;;;;4979168;28;20114;-83
2023/07/15 00:30:44;;;;;;;3.08;2.50;;;24.50;64.90;;;;;;4982521;28;20030;-84
2023/07/15 00:33:15;;;;;;;5.50;2.33;;;24.40;64.80;;;;;;4980909;28;20027;-85
2023/07/15 00:35:42;;;;;;;5.65;2.60;;;24.40;65.10;;;;;;4981847;28;20030;-83
2023/07/15 00:38:11;;;;;;;10.48;2.83;;;24.40;65.50;;;;;;4983170;28;20025;-84
2023/07/15 00:40:43;;;;;;;6.50;2.55;;;24.40;65.60;;;;;;4983456;28;20669;-84
2023/07/15 00:43:47;;;;;;;5.68;2.97;;;24.30;65.40;;;;;;4981763;28;20018;-85
2023/07/15 00:46:22;;;;;;;4.32;3.30;;;24.40;65.20;;;;;;4981886;28;20557;-85
2023/07/15 00:49:02;;;;;;;3.65;2.95;;;24.40;65.10;;;;;;4978527;28;20394;-83
2023/07/15 00:51:31;;;;;;;8.70;3.08;;;24.50;64.90;;;;;;4981031;28;20023;-84
2023/07/15 00:53:58;;;;;;;3.88;2.90;;;24.50;64.70;;;;;;4978192;28;20054;-85
2023/07/15 00:56:26;;;;;;;3.95;2.75;;;24.50;64.70;;;;;;4977932;28;20129;-84
2023/07/15 00:58:52;;;;;;;7.97;2.72;;;24.60;64.80;;;;;;4967606;28;20034;-83
2023/07/15 01:01:18;;;;;;;4.70;2.90;;;24.50;65.00;;;;;;4984586;28;20502;-86
2023/07/15 01:03:44;;;;;;;5.65;2.70;;;24.50;65.10;;;;;;4971817;28;20027;-85
2023/07/15 01:06:11;;;;;;;6.63;2.97;;;24.60;65.40;;;;;;4982986;28;20088;-86
2023/07/15 01:08:37;;;;;;;5.32;3.20;;;24.70;65.10;;;;;;4975687;28;20026;-88
2023/07/15 01:11:03;;;;;;;4.85;2.63;;;24.60;65.10;;;;;;4971549;28;20502;-85
2023/07/15 01:13:28;;;;;;;2.83;2.42;;;24.60;65.00;;;;;;4965297;28;20057;-86
2023/07/15 01:15:56;;;;;;;4.45;2.63;;;24.60;65.20;;;;;;4971499;28;20025;-86
2023/07/15 01:18:24;;;;;;;5.88;2.85;;;24.60;65.30;;;;;;4970402;28;20505;-89
2023/07/15 01:20:50;;;;;;;4.47;2.40;;;24.50;65.30;;;;;;4996396;28;20031;-86
2023/07/15 01:23:16;;;;;;;7.43;2.92;;;24.60;65.50;;;;;;4977681;28;20023;-86
2023/07/15 01:25:42;;;;;;;7.95;2.60;;;24.50;65.50;;;;;;4968298;28;20045;-88
2023/07/15 01:28:08;;;;;;;6.93;2.38;;;24.50;65.70;;;;;;4970185;28;20491;-87
2023/07/15 01:30:33;;;;;;;2.60;2.40;;;24.50;65.80;;;;;;4970474;28;20033;-86
2023/07/15 01:32:59;;;;;;;3.63;2.30;;;24.50;65.80;;;;;;4966049;28;20099;-87
2023/07/15 01:35:24;;;;;;;5.28;2.15;;;24.50;66.00;;;;;;4986288;28;20041;-86
2023/07/15 01:37:52;;;;;;;4.57;2.28;;;24.50;66.20;;;;;;4970335;28;20030;-87
2023/07/15 01:40:18;;;;;;;2.95;2.30;;;24.40;66.50;;;;;;4968744;28;20463;-86
2023/07/15 01:42:44;;;;;;;6.00;2.28;;;24.40;66.90;;;;;;4969756;28;20027;-85
2023/07/15 01:45:10;;;;;;;3.60;2.10;;;24.50;67.00;;;;;;4969637;28;20027;-85
2023/07/15 01:47:36;;;;;;;2.75;2.20;;;24.40;66.70;;;;;;4991738;28;20022;-86
2023/07/15 01:50:05;;;;;;;3.53;2.10;;;24.50;66.80;;;;;;4972735;28;20101;-87
2023/07/15 01:52:31;;;;;;;4.85;2.10;;;24.40;67.00;;;;;;4984271;28;20022;-86
2023/07/15 01:54:56;;;;;;;5.32;2.58;;;24.30;66.90;;;;;;4971860;28;20034;-90
2023/07/15 01:57:25;;;;;;;6.32;2.10;;;24.30;67.00;;;;;;4972482;28;20124;-89
2023/07/15 01:59:57;;;;;;;4.05;2.15;;;24.40;66.90;;;;;;4984907;28;20655;-89
2023/07/15 02:02:29;;;;;;;6.85;2.33;;;24.30;67.10;;;;;;5003371;28;20045;-88
2023/07/15 02:04:55;;;;;;;4.70;2.10;;;24.30;67.20;;;;;;4967368;28;20096;-89
2023/07/15 02:07:22;;;;;;;4.07;2.10;;;24.20;67.30;;;;;;4980379;28;20081;-84
2023/07/15 02:09:48;;;;;;;6.22;1.83;;;24.20;67.40;;;;;;4971561;28;20038;-84
2023/07/15 02:12:14;;;;;;;4.10;2.38;;;24.20;67.60;;;;;;4986723;28;20017;-87
2023/07/15 02:14:39;;;;;;;3.08;2.40;;;24.30;67.30;;;;;;4991289;28;20933;-89
2023/07/15 02:17:06;;;;;;;4.85;1.95;;;24.20;67.20;;;;;;4987921;28;20022;-85
2023/07/15 02:19:31;;;;;;;6.47;2.38;;;24.20;68.00;;;;;;4969417;28;20099;-90
2023/07/15 02:22:00;;;;;;;2.88;2.30;;;24.10;67.00;;;;;;4981248;28;20026;-87
2023/07/15 02:24:26;;;;;;;7.50;2.25;;;24.10;67.30;;;;;;4999368;28;20023;-89
2023/07/15 02:26:52;;;;;;;5.82;2.08;;;24.10;67.50;;;;;;4990584;28;20019;-90
2023/07/15 02:29:18;;;;;;;7.05;2.45;;;24.00;67.90;;;;;;4982764;28;20082;-87
2023/07/15 02:31:44;;;;;;;4.32;2.35;;;23.90;68.10;;;;;;4974906;28;20109;-88
2023/07/15 02:34:11;;;;;;;8.45;2.10;;;23.80;68.70;;;;;;5109185;23;20024;-82
2023/07/15 02:36:36;;;;;;;8.35;2.78;;;23.80;68.70;;;;;;4979320;28;20121;-82
2023/07/15 02:39:06;;;;;;;4.93;2.13;;;23.80;69.20;;;;;;4982440;28;20114;-82
2023/07/15 02:41:32;;;;;;;2.90;2.03;;;23.70;69.70;;;;;;4985037;28;20046;-81
2023/07/15 02:43:59;;;;;;;2.80;2.00;;;23.70;69.90;;;;;;4982873;28;20182;-82
2023/07/15 02:46:25;;;;;;;5.03;2.40;;;23.60;70.30;;;;;;4984826;28;20022;-82
2023/07/15 02:48:51;;;;;;;7.85;2.42;;;23.50;70.30;;;;;;4983616;28;20542;-81
2023/07/15 02:51:16;;;;;;;5.38;2.10;;;23.50;70.70;;;;;;4981034;28;20082;-81
2023/07/15 02:53:45;;;;;;;2.10;1.90;;;23.40;70.60;;;;;;4983532;28;20037;-81
2023/07/15 02:56:10;;;;;;;3.28;2.00;;;23.40;70.70;;;;;;4983159;28;20069;-80
2023/07/15 02:58:36;;;;;;;7.05;2.42;;;23.40;70.50;;;;;;4980646;28;20709;-82
2023/07/15 03:01:04;;;;;;;6.35;2.58;;;23.50;70.40;;;;;;4984454;28;20046;-81
2023/07/15 03:03:30;;;;;;;4.30;2.33;;;23.40;70.50;;;;;;4983688;28;20056;-82
2023/07/15 03:05:56;;;;;;;7.65;2.35;;;23.40;70.60;;;;;;4985550;28;20030;-81
2023/07/15 03:08:21;;;;;;;6.38;2.30;;;23.40;70.90;;;;;;4997971;28;20102;-80
2023/07/15 03:10:49;;;;;;;5.07;2.13;;;23.40;71.00;;;;;;4983698;28;20489;-80
2023/07/15 03:13:15;;;;;;;3.63;2.03;;;23.30;71.10;;;;;;4984285;28;20121;-80
2023/07/15 03:15:41;;;;;;;7.15;2.50;;;23.30;71.10;;;;;;4984932;28;20185;-81
2023/07/15 03:18:07;;;;;;;5.03;2.30;;;23.20;71.30;;;;;;4966878;28;20022;-80
2023/07/15 03:20:33;;;;;;;5.78;2.70;;;23.20;71.40;;;;;;4984211;28;20038;-82
2023/07/15 03:22:58;;;;;;;6.93;2.28;;;23.20;71.30;;;;;;4985704;28;20531;-81
2023/07/15 03:25:24;;;;;;;6.97;2.15;;;23.20;71.30;;;;;;4983811;28;20027;-81
2023/07/15 03:27:51;;;;;;;5.95;2.28;;;23.20;71.30;;;;;;4983642;28;20030;-81
2023/07/15 03:30:17;;;;;;;5.90;2.33;;;23.20;71.70;;;;;;4982293;28;20034;-80
2023/07/15 03:32:44;;;;;;;3.60;1.90;;;23.10;71.70;;;;;;4984349;28;20054;-80
2023/07/15 03:35:11;;;;;;;4.28;2.45;;;23.20;71.90;;;;;;4963413;28;20208;-81
2023/07/15 03:37:40;;;;;;;8.32;2.17;;;23.10;72.00;;;;;;4981654;28;20035;-81
2023/07/15 03:40:10;;;;;;;6.45;2.15;;;23.10;72.20;;;;;;4982393;28;20090;-80
2023/07/15 03:42:36;;;;;;;2.75;2.00;;;23.00;72.30;;;;;;4981867;28;20030;-80
2023/07/15 03:45:03;;;;;;;3.90;1.80;;;23.00;72.70;;;;;;4982643;28;20089;-80
2023/07/15 03:47:28;;;;;;;6.22;1.90;;;22.90;72.90;;;;;;4963492;28;20037;-80
2023/07/15 03:49:54;;;;;;;5.00;2.00;;;22.90;72.90;;;;;;4982008;28;20019;-81
2023/07/15 03:52:20;;;;;;;3.08;2.13;;;22.80;73.00;;;;;;4981139;28;20026;-80
2023/07/15 03:54:45;;;;;;;3.97;2.30;;;22.80;73.10;;;;;;4981943;28;20037;-80
2023/07/15 03:57:11;;;;;;;5.22;2.40;;;22.90;73.40;;;;;;4961597;28;20026;-87
2023/07/15 03:59:37;;;;;;;8.25;2.67;;;22.80;73.60;;;;;;4984606;28;20113;-85
2023/07/15 04:02:03;;;;;;;5.05;1.90;;;22.70;73.70;;;;;;4976583;28;20026;-88
2023/07/15 04:04:29;;;;;;;2.75;2.03;;;22.70;74.10;;;;;;4972023;28;20057;-86
2023/07/15 04:06:55;;;;;;;3.03;2.22;;;22.80;74.00;;;;;;4993413;28;20053;-88
2023/07/15 04:09:21;;;;;;;2.72;2.10;;;22.80;74.00;;;;;;4989095;28;20057;-87
2023/07/15 04:11:49;;;;;;;4.22;2.00;;;22.70;73.90;;;;;;4991801;28;20108;-91
2023/07/15 04:14:16;;;;;;;2.97;2.00;;;22.80;73.80;;;;;;4975938;28;20418;-88
2023/07/15 04:16:42;;;;;;;2.58;1.90;;;22.80;74.00;;;;;;4990792;28;20023;-89
2023/07/15 04:19:08;;;;;;;2.78;2.17;;;22.70;74.10;;;;;;4991519;28;20441;-90
2023/07/15 04:21:34;;;;;;;7.28;1.88;;;22.80;74.10;;;;;;4990895;28;20031;-90
2023/07/15 04:23:59;;;;;;;2.38;2.17;;;22.80;74.30;;;;;;5009980;28;20022;-88
2023/07/15 04:26:27;;;;;;;3.28;2.17;;;22.80;74.20;;;;;;5009459;28;20014;-87
2023/07/15 04:28:55;;;;;;;4.20;2.08;;;22.80;74.20;;;;;;4995479;28;20092;-89
2023/07/15 04:31:21;;;;;;;4.82;1.98;;;22.80;73.80;;;;;;4989175;28;20048;-86
2023/07/15 04:33:48;;;;;;;3.42;2.28;;;22.90;74.60;;;;;;4984530;28;20362;-89
2023/07/15 04:36:15;;;;;;;2.58;2.22;;;22.90;73.90;;;;;;4989954;28;20044;-90
2023/07/15 04:38:41;;;;;;;4.55;2.40;;;22.90;74.10;;;;;;4991272;28;20403;-88
2023/07/15 04:41:07;;;;;;;7.78;2.00;;;22.90;73.90;;;;;;4972564;28;20125;-89
2023/07/15 04:43:33;;;;;;;3.90;2.00;;;22.90;73.90;;;;;;4989723;28;20080;-90
2023/07/15 04:46:00;;;;;;;10.32;2.00;;;22.90;73.90;;;;;;4988617;28;20622;-90
2023/07/15 04:48:26;;;;;;;3.50;1.83;;;23.00;73.80;;;;;;4993015;28;20041;-89
2023/07/15 04:50:51;;;;;;;6.35;2.15;;;23.00;73.50;;;;;;4995619;28;20494;-86
2023/07/15 04:53:17;;;;;;;5.28;2.20;;;23.00;73.60;;;;;;4997158;28;20799;-87
2023/07/15 04:55:44;;;;;;;2.33;2.08;;;23.00;73.70;;;;;;5002040;28;20018;-86
2023/07/15 04:58:11;;;;;;;10.35;2.22;;;23.10;73.60;;;;;;5004328;28;20002;-87
2023/07/15 05:00:37;;;;;;;5.68;1.75;;;23.20;73.70;;;;;;4999493;28;20034;-86
2023/07/15 05:03:05;;;;;;;5.82;2.40;;;23.20;73.80;;;;;;4972942;28;20934;-89
2023/07/15 05:05:31;;;;;;;3.80;2.33;;;23.20;73.50;;;;;;4986393;28;20096;-90
2023/07/15 05:08:07;;;;;;;8.35;1.88;;;23.30;73.40;;;;;;4987351;28;20030;-89
2023/07/15 05:10:33;;;;;;;6.97;2.58;;;23.30;73.60;;;;;;4989392;28;20030;-90
2023/07/15 05:12:59;;;;;;;4.28;2.28;;;23.40;73.60;;;;;;4971405;28;20514;-85
2023/07/15 05:15:24;;;;;;;4.32;2.22;;;23.40;73.70;;;;;;4988939;28;20015;-90
2023/07/15 05:17:50;;;;;;;6.65;2.20;;;23.50;73.70;;;;;;4986907;28;20433;-88
2023/07/15 05:20:18;;;;;;;3.30;2.38;;;23.40;73.50;;;;;;4987100;28;20046;-90
2023/07/15 05:22:44;;;;;;;13.82;2.20;;;23.50;73.60;;;;;;4990572;28;20052;-88
2023/07/15 05:25:10;;;;;;;6.30;2.20;;;23.60;73.50;;;;;;4988275;28;20031;-89
2023/07/15 05:27:35;;;;;;;7.38;2.30;;;23.60;73.60;;;;;;4987704;28;20030;-89
2023/07/15 05:30:03;;;;;;;9.45;2.20;;;23.60;73.60;;;;;;4988579;28;20023;-90
2023/07/15 05:32:29;;;;;;;3.15;2.13;;;23.70;73.90;;;;;;4986157;28;20033;-89
2023/07/15 05:34:55;;;;;;;4.10;2.30;;;23.70;73.50;;;;;;4989167;28;20026;-85
2023/07/15 05:37:20;;;;;;;3.78;2.22;;;23.70;73.30;;;;;;4977196;28;20030;-89
2023/07/15 05:39:46;;;;;;;5.55;2.15;;;23.80;73.20;;;;;;4990123;28;20066;-89
2023/07/15 05:42:11;;;;;;;2.33;1.80;;;23.80;73.30;;;;;;4990379;28;20027;-87
2023/07/15 05:44:37;;;;;;;4.07;2.42;;;23.70;73.00;;;;;;4984470;28;20471;-83
2023/07/15 05:47:03;;;;;;;5.15;2.03;;;23.70;73.20;;;;;;4986246;28;20026;-85
2023/07/15 05:49:28;;;;;;;7.22;2.33;;;23.90;73.50;;;;;;4988277;28;20478;-88
2023/07/15 05:51:54;;;;;;;6.97;2.10;;;24.00;73.10;;;;;;4975435;28;20015;-85
2023/07/15 05:54:20;;;;;;;8.30;2.30;;;24.10;73.20;;;;;;5002506;28;20041;-85
2023/07/15 05:56:48;;;;;;;5.35;2.05;;;24.20;72.90;;;;;;4992448;28;20027;-87
2023/07/15 05:59:16;;;;;;;5.32;2.17;;;24.20;72.60;;;;;;4989933;28;20022;-89
2023/07/15 06:01:41;;;;;;;6.43;2.30;;;24.30;72.70;;;;;;4988129;28;20048;-90
2023/07/15 06:04:08;;;;;;;7.65;2.35;;;24.30;72.70;;;;;;4988127;28;20082;-88
2023/07/15 06:06:34;;;;;;;5.32;2.15;;;24.30;72.40;;;;;;4989145;28;20061;-86
2023/07/15 06:08:59;;;;;;;5.43;2.00;;;24.40;72.20;;;;;;4985100;28;20053;-87
2023/07/15 06:11:25;;;;;;;1.85;1.75;;;24.30;72.30;;;;;;4989284;28;20041;-83
2023/07/15 06:13:51;;;;;;;7.13;2.35;;;24.40;71.30;;;;;;4984905;28;20443;-82
2023/07/15 06:16:16;;;;;;;3.72;2.15;;;24.40;71.50;;;;;;4986669;28;20027;-87
2023/07/15 06:18:42;;;;;;;8.98;1.83;;;24.50;72.30;;;;;;4985846;28;20038;-84
2023/07/15 06:21:08;;;;;;;7.55;2.03;;;24.50;71.70;;;;;;4981868;28;20034;-84
2023/07/15 06:23:34;;;;;;;5.95;2.95;;;24.60;71.90;;;;;;4988611;28;20117;-88
2023/07/15 06:25:59;;;;;;;4.47;2.40;;;24.70;70.90;;;;;;5006606;28;20085;-85
2023/07/15 06:28:28;;;;;;;3.67;1.73;;;24.80;71.50;;;;;;5006108;28;20035;-85
2023/07/15 06:31:05;;;;;;;5.00;2.00;;;24.80;70.60;;;;;;4992505;28;20046;-86
2023/07/15 06:33:30;;;;;;;6.68;2.15;;;24.90;69.90;;;;;;4989811;28;20709;-89
2023/07/15 06:35:56;;;;;;;5.60;1.90;;;25.10;70.00;;;;;;4975248;28;20026;-81
2023/07/15 06:38:22;;;;;;;4.40;2.17;;;25.00;69.80;;;;;;4968415;28;20031;-84
2023/07/15 06:40:47;;;;;;;3.50;2.00;;;25.10;69.50;;;;;;4970970;28;20034;-89
2023/07/15 06:43:13;;;;;;;7.50;2.30;;;25.10;69.70;;;;;;4989427;28;20030;-90
2023/07/15 06:45:39;;;;;;;3.95;1.98;;;25.30;69.40;;;;;;4988813;28;20699;-81
2023/07/15 06:48:05;;;;;;;4.28;2.10;;;25.30;68.70;;;;;;4989492;28;20091;-86
2023/07/15 06:50:31;;;;;;;5.28;1.85;;;25.50;69.40;;;;;;5001190;28;20030;-90
2023/07/15 06:52:56;;;;;;;4.63;2.05;;;25.50;69.20;;;;;;4967114;28;20111;-87
2023/07/15 06:55:22;;;;;;;5.53;1.98;;;25.60;68.80;;;;;;4987911;28;20758;-82
2023/07/15 06:57:48;;;;;;;2.47;2.05;;;25.60;68.30;;;;;;4966303;28;20030;-90
2023/07/15 07:00:14;;;;;;;5.65;1.88;;;25.70;68.60;;;;;;4990764;28;20026;-88
2023/07/15 07:02:42;;;;;;;4.78;1.70;;;25.90;68.00;;;;;;4984231;28;20088;-87
2023/07/15 07:05:07;;;;;;;9.70;2.00;;;25.90;67.60;;;;;;4986063;28;20520;-80
2023/07/15 07:07:33;;;;;;;4.28;2.10;;;26.10;66.90;;;;;;4988796;28;20087;-88
2023/07/15 07:09:58;;;;;;;3.75;1.52;;;26.20;67.10;;;;;;4990754;28;20026;-89
2023/07/15 07:12:27;;;;;;;3.83;1.88;;;26.50;66.70;;;;;;4990495;28;20032;-87
2023/07/15 07:14:52;;;;;;;5.15;1.83;;;26.60;65.50;;;;;;4990652;28;20026;-88
2023/07/15 07:17:18;;;;;;;2.80;1.98;;;26.60;66.10;;;;;;4990721;28;20398;-90
2023/07/15 07:19:46;;;;;;;2.25;1.80;;;26.50;66.00;;;;;;4991370;28;20023;-91
2023/07/15 07:22:15;;;;;;;3.88;1.98;;;26.60;65.90;;;;;;4987776;28;20065;-86
2023/07/15 07:24:40;;;;;;;2.83;2.20;;;26.80;66.60;;;;;;4990597;28;20026;-89
2023/07/15 07:27:06;;;;;;;3.25;2.60;;;26.80;66.90;;;;;;4971225;28;20038;-85
2023/07/15 07:29:32;;;;;;;4.95;2.03;;;26.80;66.90;;;;;;4987015;28;20118;-86
2023/07/15 07:31:57;;;;;;;12.93;2.28;;;27.00;66.20;;;;;;4985495;28;20025;-84
2023/07/15 07:34:23;;;;;;;10.73;2.40;;;26.90;66.80;;;;;;4973589;28;20481;-90
2023/07/15 07:36:48;;;;;;;2.38;1.90;;;26.90;67.30;;;;;;4986444;28;20030;-81
2023/07/15 07:39:14;;;;;;;6.35;2.00;;;26.80;66.40;;;;;;4984880;28;20034;-87
2023/07/15 07:41:40;;;;;;;4.78;1.95;;;26.90;66.40;;;;;;4988553;28;20065;-79
2023/07/15 07:44:06;;;;;;;6.90;1.88;;;27.00;67.10;;;;;;4993345;28;20023;-87
2023/07/15 07:46:31;;;;;;;2.42;1.90;;;27.10;66.90;;;;;;4990649;28;20037;-92
2023/07/15 07:48:57;;;;;;;4.78;2.10;;;27.30;65.60;;;;;;4994006;28;20090;-92
2023/07/15 07:51:23;;;;;;;11.23;2.42;;;27.50;65.70;;;;;;4986677;28;20522;-92
2023/07/15 07:53:49;;;;;;;4.35;2.25;;;27.40;65.00;;;;;;4978512;28;20768;-80
2023/07/15 07:56:14;;;;;;;4.65;1.90;;;27.40;64.90;;;;;;4968532;28;20057;-93
2023/07/15 07:58:40;;;;;;;2.25;2.03;;;27.40;63.90;;;;;;4991343;28;20431;-90
2023/07/15 08:01:06;;;;;;;3.28;2.00;;;27.60;64.80;;;;;;4977173;28;20030;-92
2023/07/15 08:03:31;;;;;;;2.95;1.98;;;27.70;64.20;;;;;;4995543;28;20042;-89
2023/07/15 08:05:59;;;;;;;2.97;2.08;;;27.70;64.10;;;;;;4996513;28;20026;-83
2023/07/15 08:08:25;;;;;;;5.10;2.50;;;27.60;63.50;;;;;;4992376;28;20038;-91
2023/07/15 08:10:51;;;;;;;5.10;2.17;;;27.60;63.10;;;;;;5013642;28;20034;-89
2023/07/15 08:13:16;;;;;;;3.08;1.95;;;27.60;64.30;;;;;;5004178;28;20027;-84
2023/07/15 08:15:42;;;;;;;6.05;2.03;;;27.60;64.90;;;;;;4990997;28;20233;-92
2023/07/15 08:18:08;;;;;;;5.05;1.92;;;27.40;63.90;;;;;;4969640;28;20421;-83
2023/07/15 08:20:37;;;;;;;3.05;2.10;;;27.50;64.80;;;;;;4962449;28;20117;-81
2023/07/15 08:23:05;;;;;;;4.25;1.90;;;27.60;63.80;;;;;;4964527;28;20038;-87
2023/07/15 08:25:31;;;;;;;7.00;2.55;;;27.60;63.60;;;;;;4975507;28;20030;-91
2023/07/15 08:27:56;;;;;;;4.70;1.83;;;27.50;64.20;;;;;;4979337;28;20054;-86
2023/07/15 08:30:27;;;;;;;8.30;2.42;;;27.60;64.00;;;;;;4948033;28;20069;-80
2023/07/15 08:32:56;;;;;;;4.97;2.08;;;27.60;64.50;;;;;;4955127;28;20502;-79
2023/07/15 08:35:21;;;;;;;7.65;2.60;;;27.80;64.00;;;;;;4938865;28;20042;-79
2023/07/15 08:37:47;;;;;;;3.67;1.98;;;28.00;64.10;;;;;;4954192;28;20586;-80
2023/07/15 08:40:14;;;;;;;4.63;1.95;;;27.90;63.80;;;;;;4939006;28;20387;-80
2023/07/15 08:42:42;;;;;;;2.70;2.47;;;27.90;64.70;;;;;;4956743;28;20022;-77
2023/07/15 08:45:08;;;;;;;3.13;2.22;;;27.90;64.60;;;;;;4954916;28;20118;-77
2023/07/15 08:47:35;;;;;;;2.22;1.88;;;27.80;65.30;;;;;;4952847;28;20062;-77
2023/07/15 08:50:03;;;;;;;4.28;1.92;;;28.00;66.00;;;;;;4957914;28;20042;-78
2023/07/15 08:52:32;;;;;;;3.67;1.90;;;27.90;66.40;;;;;;4954128;28;20096;-77
2023/07/15 08:54:59;;;;;;;3.17;1.98;;;27.70;66.60;;;;;;4936511;28;20026;-77
2023/07/15 08:57:27;;;;;;;112.97;53.33;;;27.60;67.40;;;;;;4953397;28;20027;-77
2023/07/15 08:59:54;;;;;;;4.45;2.88;;;27.60;67.70;;;;;;4940170;28;20558;-80
2023/07/15 09:02:20;;;;;;;3.08;1.65;;;27.40;67.70;;;;;;4955956;28;20038;-82
2023/07/15 09:04:46;;;;;;;2.05;1.83;;;27.30;67.30;;;;;;4958773;28;20029;-80
2023/07/15 09:07:11;;;;;;;5.05;2.35;;;27.10;68.70;;;;;;4951638;28;20813;-79
2023/07/15 09:09:38;;;;;;;5.72;1.98;;;27.00;69.30;;;;;;4957321;28;20027;-81
2023/07/15 09:12:06;;;;;;;8.40;2.13;;;26.90;69.20;;;;;;4955928;28;20062;-78
2023/07/15 09:14:46;;;;;;;5.70;1.90;;;26.90;68.90;;;;;;4936923;28;20443;-79
2023/07/15 09:17:20;;;;;;;5.63;2.85;;;27.00;69.60;;;;;;4951417;28;20046;-78
2023/07/15 09:19:49;;;;;;;6.35;1.90;;;27.10;68.20;;;;;;4956053;28;20272;-78
2023/07/15 09:22:15;;;;;;;3.58;1.63;;;27.30;68.90;;;;;;4955930;28;20202;-82
2023/07/15 09:24:41;;;;;;;2.00;1.77;;;27.00;68.50;;;;;;4958748;28;20033;-78
2023/07/15 09:27:07;;;;;;;2.50;1.92;;;27.00;69.10;;;;;;4963652;28;20026;-77
2023/07/15 09:29:33;;;;;;;2.17;1.98;;;27.10;69.20;;;;;;4959494;28;20201;-78
2023/07/15 09:31:59;;;;;;;2.50;1.95;;;27.00;70.00;;;;;;4950829;28;20038;-78
2023/07/15 09:34:27;;;;;;;2.17;1.90;;;27.00;70.00;;;;;;4951900;28;20031;-79
2023/07/15 09:36:54;;;;;;;14.82;7.20;;;26.90;70.20;;;;;;4954355;28;20034;-78
2023/07/15 09:39:22;;;;;;;5.10;1.98;;;26.90;70.40;;;;;;4954257;28;20033;-82
2023/07/15 09:42:02;;;;;;;4.97;1.80;;;26.70;71.10;;;;;;4959193;28;20139;-82
2023/07/15 09:44:36;;;;;;;2.80;2.05;;;26.80;71.00;;;;;;4955314;28;20645;-85
2023/07/15 09:47:03;;;;;;;1.65;1.52;;;26.80;71.00;;;;;;4937641;28;20030;-83
2023/07/15 09:49:31;;;;;;;4.97;2.08;;;27.10;70.80;;;;;;4951484;28;20403;-83
2023/07/15 09:51:58;;;;;;;2.45;1.90;;;27.40;70.50;;;;;;4934057;28;20231;-82
2023/07/15 09:54:26;;;;;;;6.60;2.13;;;27.70;69.60;;;;;;4948330;28;20033;-83
2023/07/15 09:56:56;;;;;;;2.47;2.13;;;28.00;69.20;;;;;;4956217;28;20030;-84
2023/07/15 09:59:24;;;;;;;4.72;1.70;;;28.30;68.50;;;;;;4957631;28;20029;-86
2023/07/15 10:01:56;;;;;;;2.13;1.90;;;28.60;67.40;;;;;;4941754;28;20129;-83
2023/07/15 10:04:35;;;;;;;2.33;1.80;;;28.90;67.10;;;;;;4955380;28;20531;-85
2023/07/15 10:07:02;;;;;;;4.60;1.75;;;29.20;66.30;;;;;;4936077;28;20042;-85
2023/07/15 10:09:30;;;;;;;2.28;1.65;;;29.20;66.10;;;;;;4941682;28;20117;-94
2023/07/15 10:11:57;;;;;;;2.60;1.40;;;29.20;66.20;;;;;;4939265;28;20040;-86
2023/07/15 10:14:23;;;;;;;2.05;1.77;;;29.40;66.40;;;;;;4954127;28;20030;-85
2023/07/15 10:17:09;;;;;;;3.25;1.88;;;29.90;65.40;;;;;;4939896;28;20077;-84
2023/07/15 10:19:45;;;;;;;4.85;1.67;;;29.70;64.50;;;;;;4958879;28;20030;-84
2023/07/15 10:22:12;;;;;;;3.55;1.60;;;29.70;65.30;;;;;;4957309;28;20030;-83
2023/07/15 10:24:42;;;;;;;3.80;1.90;;;29.40;65.80;;;;;;4982644;28;20061;-86
2023/07/15 10:27:10;;;;;;;2.47;1.83;;;29.00;66.30;;;;;;4980841;28;20026;-79
2023/07/15 10:29:40;;;;;;;67.00;38.05;;;28.90;67.00;;;;;;4978168;28;20122;-81
2023/07/15 10:32:13;;;;;;;4.45;1.80;;;28.90;67.20;;;;;;4964641;28;20139;-80
2023/07/15 10:34:48;;;;;;;13.02;4.22;;;28.50;68.80;;;;;;4953472;28;20022;-81
2023/07/15 10:37:18;;;;;;;36.63;15.55;;;28.40;70.50;;;;;;4953033;28;20469;-81
2023/07/15 10:39:47;;;;;;;6.00;1.73;;;28.50;71.30;;;;;;4935669;28;20049;-90
2023/07/15 10:42:16;;;;;;;4.60;2.10;;;28.30;72.60;;;;;;4988545;23;20146;-91
2023/07/15 10:44:50;;;;;;;11.90;1.95;;;29.00;72.20;;;;;;4979369;28;20070;-85
2023/07/15 10:47:18;;;;;;;4.95;1.77;;;28.80;72.50;;;;;;4965739;28;20023;-87
2023/07/15 10:49:44;;;;;;;18.92;2.47;;;28.20;74.80;;;;;;4974509;28;20035;-86
2023/07/15 10:52:19;;;;;;;6.72;1.88;;;28.10;75.10;;;;;;4972473;28;20027;-92
2023/07/15 10:54:46;;;;;;;5.47;1.38;;;27.80;76.40;;;;;;4963585;28;20034;-95
2023/07/15 10:57:15;;;;;;;3.80;1.70;;;27.60;77.60;;;;;;4998338;23;20056;-90
2023/07/15 10:59:44;;;;;;;4.72;1.50;;;27.30;78.70;;;;;;4965931;28;20027;-86
2023/07/15 11:02:11;;;;;;;4.85;1.63;;;26.90;80.00;;;;;;4968898;23;20094;-85
2023/07/15 11:04:38;;;;;;;6.47;2.15;;;26.50;81.60;;;;;;4955415;28;20038;-90
2023/07/15 11:07:07;;;;;;;5.13;2.63;;;26.30;85.00;;;;;;4932379;29;20026;-82
2023/07/15 11:09:38;;;;;;;9.63;3.30;;;25.90;90.20;;;;;;4921635;29;20129;-83
2023/07/15 11:12:06;;;;;;;8.18;3.03;;;24.10;98.40;;;;;;4929428;28;20355;-88
2023/07/15 11:14:31;;;;;;;2.65;2.35;;;23.00;99.90;;;;;;4948892;28;20039;-84
2023/07/15 11:17:01;;;;;;;4.15;2.78;;;22.70;99.90;;;;;;4930944;28;20062;-84
2023/07/15 11:19:28;;;;;;;2.92;2.70;;;23.30;99.90;;;;;;4954520;28;20043;-80
2023/07/15 11:21:58;;;;;;;3.38;3.08;;;23.90;99.90;;;;;;4946265;28;20042;-85
2023/07/15 11:24:28;;;;;;;4.60;2.90;;;24.70;99.90;;;;;;4944379;28;20024;-84
2023/07/15 11:26:54;;;;;;;4.28;3.08;;;25.00;99.90;;;;;;4943349;28;20198;-83
2023/07/15 11:29:24;;;;;;;3.00;2.72;;;25.00;99.90;;;;;;4932964;28;20118;-83
2023/07/15 11:31:52;;;;;;;3.58;3.05;;;24.60;99.90;;;;;;4944715;28;20101;-82
2023/07/15 11:34:19;;;;;;;3.30;2.92;;;24.40;99.90;;;;;;4944765;28;20038;-82
2023/07/15 11:36:46;;;;;;;5.85;2.88;;;24.70;99.90;;;;;;4954075;28;20089;-84
2023/07/15 11:39:13;;;;;;;2.38;2.17;;;25.20;99.90;;;;;;4935314;29;20100;-80
2023/07/15 11:41:39;;;;;;;5.78;2.50;;;25.00;99.90;;;;;;4933723;28;20037;-81
2023/07/15 11:44:21;;;;;;;5.90;2.30;;;25.10;99.90;;;;;;4953737;28;20263;-86
2023/07/15 11:46:47;;;;;;;2.60;2.40;;;25.00;99.90;;;;;;4929282;28;20094;-88
2023/07/15 11:49:18;;;;;;;3.03;2.35;;;24.90;99.90;;;;;;4950239;28;20398;-83
2023/07/15 11:51:44;;;;;;;2.28;2.08;;;24.80;99.90;;;;;;4940925;28;20455;-83
2023/07/15 11:54:11;;;;;;;4.57;1.92;;;24.60;99.90;;;;;;4949805;28;20030;-84
2023/07/15 11:56:42;;;;;;;3.03;1.80;;;24.60;99.90;;;;;;4953327;28;20030;-90
2023/07/15 11:59:11;;;;;;;2.60;1.90;;;24.60;99.90;;;;;;4941736;28;20017;-91
2023/07/15 12:01:38;;;;;;;2.65;1.88;;;24.70;99.90;;;;;;4927707;29;20103;-81
2023/07/15 12:04:14;;;;;;;4.03;2.55;;;24.80;99.90;;;;;;4925612;29;20664;-87
2023/07/15 12:06:49;;;;;;;2.90;2.58;;;24.90;99.90;;;;;;4930180;29;20032;-80
2023/07/15 12:09:16;;;;;;;2.28;2.08;;;25.10;99.90;;;;;;4929095;29;20036;-82
2023/07/15 12:11:44;;;;;;;42.10;20.60;;;25.10;99.90;;;;;;4916975;29;20078;-90
2023/07/15 12:14:12;;;;;;;38.53;18.08;;;25.00;99.60;;;;;;4928963;29;20127;-83
2023/07/15 12:16:39;;;;;;;2.22;2.03;;;25.00;99.90;;;;;;4932863;29;20048;-90
2023/07/15 12:19:08;;;;;;;2.28;2.17;;;25.10;98.80;;;;;;4917061;29;20234;-88
2023/07/15 12:21:33;;;;;;;2.22;2.05;;;25.20;99.90;;;;;;4931760;29;20144;-80
2023/07/15 12:23:59;;;;;;;5.60;2.45;;;25.30;99.30;;;;;;4907548;29;20731;-84
2023/07/15 12:26:25;;;;;;;2.55;2.35;;;25.30;99.90;;;;;;4935322;29;20047;-81
2023/07/15 12:28:51;;;;;;;2.67;2.38;;;25.30;98.90;;;;;;4932818;28;20928;-81
2023/07/15 12:31:20;;;;;;;2.13;2.03;;;25.30;99.90;;;;;;4936654;29;20856;-86
2023/07/15 12:33:46;;;;;;;1.42;1.33;;;25.50;98.30;;;;;;4910027;29;21015;-81
2023/07/15 12:36:13;;;;;;;1.73;1.52;;;25.70;97.50;;;;;;4911350;29;20028;-81
2023/07/15 12:38:39;;;;;;;47.30;21.73;;;26.20;96.90;;;;;;4934253;29;20043;-84
2023/07/15 12:41:06;;;;;;;54.40;27.20;;;26.70;98.50;;;;;;4947528;28;20435;-83
2023/07/15 12:51:08;;;;;;;1.83;1.73;;;28.60;95.20;;;;;;5260681;23;20062;-85
2023/07/15 12:53:34;;;;;;;1.83;1.70;;;29.10;97.50;;;;;;4972296;28;20439;-79